sensor_id;sensor_type;location;lat;lon;timestamp;P1;durP1;ratioP1;P2;durP2;ratioP2
54935;SDS011;40838;50.676;7.838;2023-04-25T00:01:39;11.80;;;4.80;;
54935;SDS011;40838;50.676;7.838;2023-04-25T00:04:06;11.18;;;4.40;;
54935;SDS011;40838;50.676;7.838;2023-04-25T00:06:35;10.20;;;4.50;;
54935;SDS011;40838;50.676;7.838;2023-04-25T00:09:02;15.02;;;4.55;;
54935;SDS011;40838;50.676;7.838;2023-04-25T00:11:32;7.60;;;4.35;;
54935;SDS011;40838;50.676;7.838;2023-04-25T00:13:59;12.35;;;4.03;;
54935;SDS011;40838;50.676;7.838;2023-04-25T00:16:27;10.85;;;4.30;;
54935;SDS011;40838;50.676;7.838;2023-04-25T00:18:55;12.32;;;4.82;;
54935;SDS011;40838;50.676;7.838;2023-04-25T00:21:24;9.70;;;4.53;;
54935;SDS011;40838;50.676;7.838;2023-04-25T00:23:52;11.18;;;4.50;;
54935;SDS011;40838;50.676;7.838;2023-04-25T00:26:19;13.57;;;4.13;;
54935;SDS011;40838;50.676;7.838;2023-04-25T00:28:47;9.93;;;4.47;;
54935;SDS011;40838;50.676;7.838;2023-04-25T00:31:14;9.57;;;4.70;;
54935;SDS011;40838;50.676;7.838;2023-04-25T00:33:40;15.55;;;5.57;;
54935;SDS011;40838;50.676;7.838;2023-04-25T00:36:07;11.50;;;4.75;;
54935;SDS011;40838;50.676;7.838;2023-04-25T00:38:35;14.02;;;5.43;;
54935;SDS011;40838;50.676;7.838;2023-04-25T00:41:05;14.20;;;5.38;;
54935;SDS011;40838;50.676;7.838;2023-04-25T00:43:33;11.20;;;4.95;;
54935;SDS011;40838;50.676;7.838;2023-04-25T00:46:02;12.93;;;5.90;;
54935;SDS011;40838;50.676;7.838;2023-04-25T00:48:29;16.33;;;5.63;;
54935;SDS011;40838;50.676;7.838;2023-04-25T00:50:57;11.50;;;5.93;;
54935;SDS011;40838;50.676;7.838;2023-04-25T00:53:27;9.25;;;5.15;;
54935;SDS011;40838;50.676;7.838;2023-04-25T00:55:57;10.82;;;5.43;;
54935;SDS011;40838;50.676;7.838;2023-04-25T00:58:26;14.75;;;5.03;;
54935;SDS011;40838;50.676;7.838;2023-04-25T01:00:53;11.35;;;6.00;;
54935;SDS011;40838;50.676;7.838;2023-04-25T01:03:21;13.57;;;5.40;;
54935;SDS011;40838;50.676;7.838;2023-04-25T01:05:49;11.30;;;4.28;;
54935;SDS011;40838;50.676;7.838;2023-04-25T01:08:17;9.02;;;4.70;;
54935;SDS011;40838;50.676;7.838;2023-04-25T01:10:44;12.25;;;4.72;;
54935;SDS011;40838;50.676;7.838;2023-04-25T01:13:10;11.82;;;5.20;;
54935;SDS011;40838;50.676;7.838;2023-04-25T01:15:39;12.75;;;5.15;;
54935;SDS011;40838;50.676;7.838;2023-04-25T01:18:06;15.93;;;6.07;;
54935;SDS011;40838;50.676;7.838;2023-04-25T01:20:33;12.13;;;5.60;;
54935;SDS011;40838;50.676;7.838;2023-04-25T01:23:01;13.02;;;5.53;;
54935;SDS011;40838;50.676;7.838;2023-04-25T01:25:29;11.15;;;6.18;;
54935;SDS011;40838;50.676;7.838;2023-04-25T01:27:56;13.93;;;6.57;;
54935;SDS011;40838;50.676;7.838;2023-04-25T01:30:25;16.60;;;6.35;;
54935;SDS011;40838;50.676;7.838;2023-04-25T01:32:53;15.13;;;6.10;;
54935;SDS011;40838;50.676;7.838;2023-04-25T01:35:21;14.98;;;5.97;;
54935;SDS011;40838;50.676;7.838;2023-04-25T01:37:52;19.73;;;6.55;;
54935;SDS011;40838;50.676;7.838;2023-04-25T01:40:21;16.98;;;7.32;;
54935;SDS011;40838;50.676;7.838;2023-04-25T01:42:49;12.65;;;6.47;;
54935;SDS011;40838;50.676;7.838;2023-04-25T01:45:19;14.45;;;6.43;;
54935;SDS011;40838;50.676;7.838;2023-04-25T01:47:47;12.93;;;6.90;;
54935;SDS011;40838;50.676;7.838;2023-04-25T01:50:15;28.42;;;8.38;;
54935;SDS011;40838;50.676;7.838;2023-04-25T01:52:43;26.67;;;8.02;;
54935;SDS011;40838;50.676;7.838;2023-04-25T01:55:11;18.42;;;7.55;;
54935;SDS011;40838;50.676;7.838;2023-04-25T01:57:45;27.60;;;9.30;;
54935;SDS011;40838;50.676;7.838;2023-04-25T02:00:12;20.52;;;9.10;;
54935;SDS011;40838;50.676;7.838;2023-04-25T02:02:39;20.25;;;9.38;;
54935;SDS011;40838;50.676;7.838;2023-04-25T02:05:34;17.00;;;8.38;;
54935;SDS011;40838;50.676;7.838;2023-04-25T02:08:04;23.70;;;9.25;;
54935;SDS011;40838;50.676;7.838;2023-04-25T02:10:32;20.55;;;9.30;;
54935;SDS011;40838;50.676;7.838;2023-04-25T02:13:14;24.63;;;10.05;;
54935;SDS011;40838;50.676;7.838;2023-04-25T02:16:02;22.52;;;9.68;;
54935;SDS011;40838;50.676;7.838;2023-04-25T02:18:29;31.38;;;9.52;;
54935;SDS011;40838;50.676;7.838;2023-04-25T02:21:03;23.10;;;9.02;;
54935;SDS011;40838;50.676;7.838;2023-04-25T02:23:29;28.08;;;9.80;;
54935;SDS011;40838;50.676;7.838;2023-04-25T02:25:58;26.35;;;9.27;;
54935;SDS011;40838;50.676;7.838;2023-04-25T02:28:27;24.67;;;10.35;;
54935;SDS011;40838;50.676;7.838;2023-04-25T02:30:54;20.88;;;9.48;;
54935;SDS011;40838;50.676;7.838;2023-04-25T02:33:22;27.45;;;9.82;;
54935;SDS011;40838;50.676;7.838;2023-04-25T02:35:49;26.42;;;9.60;;
54935;SDS011;40838;50.676;7.838;2023-04-25T02:38:16;18.88;;;9.65;;
54935;SDS011;40838;50.676;7.838;2023-04-25T02:40:43;29.02;;;11.02;;
54935;SDS011;40838;50.676;7.838;2023-04-25T02:43:09;24.45;;;9.95;;
54935;SDS011;40838;50.676;7.838;2023-04-25T02:45:38;26.20;;;10.32;;
54935;SDS011;40838;50.676;7.838;2023-04-25T02:48:06;21.85;;;8.63;;
54935;SDS011;40838;50.676;7.838;2023-04-25T02:50:33;20.95;;;8.38;;
54935;SDS011;40838;50.676;7.838;2023-04-25T02:53:00;28.75;;;8.40;;
54935;SDS011;40838;50.676;7.838;2023-04-25T02:55:34;22.80;;;8.77;;
54935;SDS011;40838;50.676;7.838;2023-04-25T02:58:03;22.70;;;9.80;;
54935;SDS011;40838;50.676;7.838;2023-04-25T03:00:44;27.40;;;9.23;;
54935;SDS011;40838;50.676;7.838;2023-04-25T03:03:11;22.40;;;8.80;;
54935;SDS011;40838;50.676;7.838;2023-04-25T03:05:37;26.83;;;8.65;;
54935;SDS011;40838;50.676;7.838;2023-04-25T03:08:05;18.20;;;8.93;;
54935;SDS011;40838;50.676;7.838;2023-04-25T03:10:36;17.98;;;9.00;;
54935;SDS011;40838;50.676;7.838;2023-04-25T03:13:05;25.75;;;9.45;;
54935;SDS011;40838;50.676;7.838;2023-04-25T03:15:32;28.38;;;8.35;;
54935;SDS011;40838;50.676;7.838;2023-04-25T03:18:00;21.73;;;8.70;;
54935;SDS011;40838;50.676;7.838;2023-04-25T03:20:29;19.17;;;8.85;;
54935;SDS011;40838;50.676;7.838;2023-04-25T03:22:56;30.60;;;8.57;;
54935;SDS011;40838;50.676;7.838;2023-04-25T03:25:26;22.02;;;7.97;;
54935;SDS011;40838;50.676;7.838;2023-04-25T03:27:53;25.77;;;9.93;;
54935;SDS011;40838;50.676;7.838;2023-04-25T03:30:21;31.33;;;9.75;;
54935;SDS011;40838;50.676;7.838;2023-04-25T03:32:48;25.50;;;9.43;;
54935;SDS011;40838;50.676;7.838;2023-04-25T03:35:17;27.50;;;9.73;;
54935;SDS011;40838;50.676;7.838;2023-04-25T03:37:45;23.85;;;7.63;;
54935;SDS011;40838;50.676;7.838;2023-04-25T03:40:16;23.95;;;7.82;;
54935;SDS011;40838;50.676;7.838;2023-04-25T03:43:00;23.40;;;7.93;;
54935;SDS011;40838;50.676;7.838;2023-04-25T03:45:27;21.05;;;7.50;;
54935;SDS011;40838;50.676;7.838;2023-04-25T03:47:54;28.52;;;9.27;;
54935;SDS011;40838;50.676;7.838;2023-04-25T03:50:23;20.50;;;8.23;;
54935;SDS011;40838;50.676;7.838;2023-04-25T03:52:50;28.60;;;8.77;;
54935;SDS011;40838;50.676;7.838;2023-04-25T03:55:17;23.30;;;8.40;;
54935;SDS011;40838;50.676;7.838;2023-04-25T03:57:44;26.88;;;7.55;;
54935;SDS011;40838;50.676;7.838;2023-04-25T04:00:11;30.45;;;8.18;;
54935;SDS011;40838;50.676;7.838;2023-04-25T04:02:39;22.00;;;8.07;;
54935;SDS011;40838;50.676;7.838;2023-04-25T04:05:07;26.65;;;8.95;;
54935;SDS011;40838;50.676;7.838;2023-04-25T04:07:39;20.02;;;7.82;;
54935;SDS011;40838;50.676;7.838;2023-04-25T04:10:09;17.58;;;8.27;;
54935;SDS011;40838;50.676;7.838;2023-04-25T04:12:38;28.17;;;8.18;;
54935;SDS011;40838;50.676;7.838;2023-04-25T04:15:05;29.08;;;8.95;;
54935;SDS011;40838;50.676;7.838;2023-04-25T04:17:35;24.65;;;8.77;;
54935;SDS011;40838;50.676;7.838;2023-04-25T04:20:02;25.08;;;8.68;;
54935;SDS011;40838;50.676;7.838;2023-04-25T04:22:31;26.23;;;9.50;;
54935;SDS011;40838;50.676;7.838;2023-04-25T04:25:06;22.98;;;9.05;;
54935;SDS011;40838;50.676;7.838;2023-04-25T04:28:08;24.88;;;9.20;;
54935;SDS011;40838;50.676;7.838;2023-04-25T04:30:45;26.85;;;9.38;;
54935;SDS011;40838;50.676;7.838;2023-04-25T04:33:12;24.98;;;8.55;;
54935;SDS011;40838;50.676;7.838;2023-04-25T04:35:41;29.75;;;8.40;;
54935;SDS011;40838;50.676;7.838;2023-04-25T04:38:09;25.48;;;8.18;;
54935;SDS011;40838;50.676;7.838;2023-04-25T04:40:38;26.58;;;9.05;;
54935;SDS011;40838;50.676;7.838;2023-04-25T04:43:19;27.08;;;8.68;;
54935;SDS011;40838;50.676;7.838;2023-04-25T04:45:50;25.75;;;9.57;;
54935;SDS011;40838;50.676;7.838;2023-04-25T04:48:21;28.40;;;9.63;;
54935;SDS011;40838;50.676;7.838;2023-04-25T04:51:07;32.08;;;9.70;;
54935;SDS011;40838;50.676;7.838;2023-04-25T04:53:52;31.17;;;10.30;;
54935;SDS011;40838;50.676;7.838;2023-04-25T04:56:35;22.13;;;8.85;;
54935;SDS011;40838;50.676;7.838;2023-04-25T04:59:37;25.25;;;8.48;;
54935;SDS011;40838;50.676;7.838;2023-04-25T05:02:37;23.83;;;9.13;;
54935;SDS011;40838;50.676;7.838;2023-04-25T05:05:23;25.00;;;9.02;;
54935;SDS011;40838;50.676;7.838;2023-04-25T05:08:10;31.85;;;9.70;;
54935;SDS011;40838;50.676;7.838;2023-04-25T05:10:52;22.17;;;9.32;;
54935;SDS011;40838;50.676;7.838;2023-04-25T05:13:31;31.70;;;10.85;;
54935;SDS011;40838;50.676;7.838;2023-04-25T05:16:24;27.47;;;9.97;;
54935;SDS011;40838;50.676;7.838;2023-04-25T05:18:56;22.65;;;9.30;;
54935;SDS011;40838;50.676;7.838;2023-04-25T05:21:41;27.73;;;10.18;;
54935;SDS011;40838;50.676;7.838;2023-04-25T05:24:21;18.23;;;8.15;;
54935;SDS011;40838;50.676;7.838;2023-04-25T05:27:10;21.52;;;8.68;;
54935;SDS011;40838;50.676;7.838;2023-04-25T05:29:49;19.77;;;7.80;;
54935;SDS011;40838;50.676;7.838;2023-04-25T05:32:24;22.88;;;8.80;;
54935;SDS011;40838;50.676;7.838;2023-04-25T05:34:51;22.90;;;7.60;;
54935;SDS011;40838;50.676;7.838;2023-04-25T05:37:23;23.33;;;8.35;;
54935;SDS011;40838;50.676;7.838;2023-04-25T05:40:10;27.52;;;7.88;;
54935;SDS011;40838;50.676;7.838;2023-04-25T05:42:43;21.10;;;8.43;;
54935;SDS011;40838;50.676;7.838;2023-04-25T05:45:21;22.10;;;7.88;;
54935;SDS011;40838;50.676;7.838;2023-04-25T05:48:11;14.70;;;7.90;;
54935;SDS011;40838;50.676;7.838;2023-04-25T05:51:00;19.73;;;6.80;;
54935;SDS011;40838;50.676;7.838;2023-04-25T05:53:45;24.73;;;7.95;;
54935;SDS011;40838;50.676;7.838;2023-04-25T05:56:13;19.63;;;7.93;;
54935;SDS011;40838;50.676;7.838;2023-04-25T05:58:40;20.83;;;8.13;;
54935;SDS011;40838;50.676;7.838;2023-04-25T06:01:11;19.70;;;8.18;;
54935;SDS011;40838;50.676;7.838;2023-04-25T06:03:38;21.90;;;8.35;;
54935;SDS011;40838;50.676;7.838;2023-04-25T06:06:08;28.58;;;7.30;;
54935;SDS011;40838;50.676;7.838;2023-04-25T06:08:35;20.20;;;7.45;;
54935;SDS011;40838;50.676;7.838;2023-04-25T06:11:03;21.23;;;8.20;;
54935;SDS011;40838;50.676;7.838;2023-04-25T06:13:30;20.25;;;7.93;;
54935;SDS011;40838;50.676;7.838;2023-04-25T06:15:57;19.55;;;7.10;;
54935;SDS011;40838;50.676;7.838;2023-04-25T06:18:26;14.90;;;6.85;;
54935;SDS011;40838;50.676;7.838;2023-04-25T06:20:53;17.00;;;7.07;;
54935;SDS011;40838;50.676;7.838;2023-04-25T06:23:21;21.67;;;7.05;;
54935;SDS011;40838;50.676;7.838;2023-04-25T06:26:00;13.45;;;7.30;;
54935;SDS011;40838;50.676;7.838;2023-04-25T06:28:28;19.42;;;6.82;;
54935;SDS011;40838;50.676;7.838;2023-04-25T06:30:55;21.33;;;8.48;;
54935;SDS011;40838;50.676;7.838;2023-04-25T06:33:22;22.33;;;8.15;;
54935;SDS011;40838;50.676;7.838;2023-04-25T06:35:52;23.13;;;8.88;;
54935;SDS011;40838;50.676;7.838;2023-04-25T06:38:23;19.40;;;9.23;;
54935;SDS011;40838;50.676;7.838;2023-04-25T06:40:51;19.70;;;7.95;;
54935;SDS011;40838;50.676;7.838;2023-04-25T06:43:18;20.23;;;8.07;;
54935;SDS011;40838;50.676;7.838;2023-04-25T06:46:03;26.45;;;8.60;;
54935;SDS011;40838;50.676;7.838;2023-04-25T06:48:34;21.17;;;9.43;;
54935;SDS011;40838;50.676;7.838;2023-04-25T06:51:03;27.95;;;9.90;;
54935;SDS011;40838;50.676;7.838;2023-04-25T06:53:30;22.15;;;9.13;;
54935;SDS011;40838;50.676;7.838;2023-04-25T06:56:00;19.52;;;9.32;;
54935;SDS011;40838;50.676;7.838;2023-04-25T06:58:50;25.20;;;8.80;;
54935;SDS011;40838;50.676;7.838;2023-04-25T07:01:34;20.15;;;8.05;;
54935;SDS011;40838;50.676;7.838;2023-04-25T07:04:04;19.48;;;8.75;;
54935;SDS011;40838;50.676;7.838;2023-04-25T07:06:34;23.55;;;9.20;;
54935;SDS011;40838;50.676;7.838;2023-04-25T07:09:03;21.45;;;8.52;;
54935;SDS011;40838;50.676;7.838;2023-04-25T07:11:30;21.52;;;9.32;;
54935;SDS011;40838;50.676;7.838;2023-04-25T07:13:57;22.80;;;9.40;;
54935;SDS011;40838;50.676;7.838;2023-04-25T07:16:24;16.67;;;8.32;;
54935;SDS011;40838;50.676;7.838;2023-04-25T07:18:51;21.08;;;8.73;;
54935;SDS011;40838;50.676;7.838;2023-04-25T07:21:18;19.88;;;8.27;;
54935;SDS011;40838;50.676;7.838;2023-04-25T07:23:48;15.45;;;8.38;;
54935;SDS011;40838;50.676;7.838;2023-04-25T07:26:19;18.75;;;8.13;;
54935;SDS011;40838;50.676;7.838;2023-04-25T07:29:09;17.05;;;7.43;;
54935;SDS011;40838;50.676;7.838;2023-04-25T07:31:35;22.77;;;7.40;;
54935;SDS011;40838;50.676;7.838;2023-04-25T07:34:03;14.68;;;7.38;;
54935;SDS011;40838;50.676;7.838;2023-04-25T07:36:30;17.48;;;7.68;;
54935;SDS011;40838;50.676;7.838;2023-04-25T07:38:59;15.15;;;5.78;;
54935;SDS011;40838;50.676;7.838;2023-04-25T07:41:26;14.98;;;6.95;;
54935;SDS011;40838;50.676;7.838;2023-04-25T07:43:53;15.68;;;7.03;;
54935;SDS011;40838;50.676;7.838;2023-04-25T07:46:20;17.75;;;7.13;;
54935;SDS011;40838;50.676;7.838;2023-04-25T07:48:47;17.75;;;6.65;;
54935;SDS011;40838;50.676;7.838;2023-04-25T07:51:14;18.13;;;6.82;;
54935;SDS011;40838;50.676;7.838;2023-04-25T07:53:41;16.10;;;5.72;;
54935;SDS011;40838;50.676;7.838;2023-04-25T07:56:13;15.52;;;5.82;;
54935;SDS011;40838;50.676;7.838;2023-04-25T07:58:42;17.42;;;5.65;;
54935;SDS011;40838;50.676;7.838;2023-04-25T08:01:12;15.93;;;6.13;;
54935;SDS011;40838;50.676;7.838;2023-04-25T08:03:53;13.68;;;5.03;;
54935;SDS011;40838;50.676;7.838;2023-04-25T08:06:32;16.17;;;6.43;;
54935;SDS011;40838;50.676;7.838;2023-04-25T08:09:07;13.13;;;5.90;;
54935;SDS011;40838;50.676;7.838;2023-04-25T08:11:39;12.90;;;5.28;;
54935;SDS011;40838;50.676;7.838;2023-04-25T08:14:08;17.52;;;5.97;;
54935;SDS011;40838;50.676;7.838;2023-04-25T08:16:36;14.35;;;5.65;;
54935;SDS011;40838;50.676;7.838;2023-04-25T08:19:03;16.98;;;6.72;;
54935;SDS011;40838;50.676;7.838;2023-04-25T08:21:33;14.70;;;5.40;;
54935;SDS011;40838;50.676;7.838;2023-04-25T08:24:04;12.70;;;5.55;;
54935;SDS011;40838;50.676;7.838;2023-04-25T08:26:35;26.73;;;6.45;;
54935;SDS011;40838;50.676;7.838;2023-04-25T08:29:04;15.18;;;6.53;;
54935;SDS011;40838;50.676;7.838;2023-04-25T08:31:31;9.02;;;4.90;;
54935;SDS011;40838;50.676;7.838;2023-04-25T08:34:01;14.07;;;4.75;;
54935;SDS011;40838;50.676;7.838;2023-04-25T08:36:42;13.95;;;4.85;;
54935;SDS011;40838;50.676;7.838;2023-04-25T08:39:22;12.32;;;4.85;;
54935;SDS011;40838;50.676;7.838;2023-04-25T08:42:09;12.07;;;5.18;;
54935;SDS011;40838;50.676;7.838;2023-04-25T08:44:40;14.38;;;4.55;;
54935;SDS011;40838;50.676;7.838;2023-04-25T08:47:07;11.57;;;4.28;;
54935;SDS011;40838;50.676;7.838;2023-04-25T08:49:48;17.88;;;5.03;;
54935;SDS011;40838;50.676;7.838;2023-04-25T08:52:19;10.52;;;4.32;;
54935;SDS011;40838;50.676;7.838;2023-04-25T08:54:48;15.82;;;4.90;;
54935;SDS011;40838;50.676;7.838;2023-04-25T08:57:16;15.95;;;5.15;;
54935;SDS011;40838;50.676;7.838;2023-04-25T08:59:47;12.70;;;4.15;;
54935;SDS011;40838;50.676;7.838;2023-04-25T09:02:16;13.48;;;4.90;;
54935;SDS011;40838;50.676;7.838;2023-04-25T09:04:48;12.98;;;4.55;;
54935;SDS011;40838;50.676;7.838;2023-04-25T09:07:15;11.88;;;4.20;;
54935;SDS011;40838;50.676;7.838;2023-04-25T09:09:46;19.27;;;5.15;;
54935;SDS011;40838;50.676;7.838;2023-04-25T09:12:16;13.73;;;4.50;;
54935;SDS011;40838;50.676;7.838;2023-04-25T09:14:53;14.35;;;4.70;;
54935;SDS011;40838;50.676;7.838;2023-04-25T09:17:43;10.90;;;4.40;;
54935;SDS011;40838;50.676;7.838;2023-04-25T09:20:12;14.43;;;5.07;;
54935;SDS011;40838;50.676;7.838;2023-04-25T09:22:40;13.50;;;4.40;;
54935;SDS011;40838;50.676;7.838;2023-04-25T09:25:08;18.45;;;6.45;;
54935;SDS011;40838;50.676;7.838;2023-04-25T09:27:40;15.70;;;5.00;;
54935;SDS011;40838;50.676;7.838;2023-04-25T09:30:29;12.10;;;4.55;;
54935;SDS011;40838;50.676;7.838;2023-04-25T09:33:21;14.32;;;4.65;;
54935;SDS011;40838;50.676;7.838;2023-04-25T09:35:54;9.55;;;3.72;;
54935;SDS011;40838;50.676;7.838;2023-04-25T09:38:54;10.65;;;3.47;;
54935;SDS011;40838;50.676;7.838;2023-04-25T09:41:26;9.75;;;4.00;;
54935;SDS011;40838;50.676;7.838;2023-04-25T09:43:56;8.95;;;3.42;;
54935;SDS011;40838;50.676;7.838;2023-04-25T09:46:32;9.23;;;3.08;;
54935;SDS011;40838;50.676;7.838;2023-04-25T09:49:05;6.57;;;2.55;;
54935;SDS011;40838;50.676;7.838;2023-04-25T09:51:53;7.53;;;2.10;;
54935;SDS011;40838;50.676;7.838;2023-04-25T09:54:22;7.28;;;2.13;;
54935;SDS011;40838;50.676;7.838;2023-04-25T09:56:55;6.68;;;2.30;;
54935;SDS011;40838;50.676;7.838;2023-04-25T09:59:28;6.40;;;2.55;;
54935;SDS011;40838;50.676;7.838;2023-04-25T10:01:59;9.40;;;2.47;;
54935;SDS011;40838;50.676;7.838;2023-04-25T10:04:34;12.65;;;2.40;;
54935;SDS011;40838;50.676;7.838;2023-04-25T10:07:10;10.77;;;3.30;;
54935;SDS011;40838;50.676;7.838;2023-04-25T10:09:38;9.02;;;2.97;;
54935;SDS011;40838;50.676;7.838;2023-04-25T10:12:06;7.20;;;2.33;;
54935;SDS011;40838;50.676;7.838;2023-04-25T10:14:33;13.25;;;2.33;;
54935;SDS011;40838;50.676;7.838;2023-04-25T10:17:02;9.88;;;2.78;;
54935;SDS011;40838;50.676;7.838;2023-04-25T10:19:29;14.65;;;2.65;;
54935;SDS011;40838;50.676;7.838;2023-04-25T10:22:00;12.88;;;2.90;;
54935;SDS011;40838;50.676;7.838;2023-04-25T10:24:32;9.15;;;3.42;;
54935;SDS011;40838;50.676;7.838;2023-04-25T10:26:59;12.05;;;3.50;;
54935;SDS011;40838;50.676;7.838;2023-04-25T10:29:27;14.27;;;3.30;;
54935;SDS011;40838;50.676;7.838;2023-04-25T10:31:54;6.40;;;2.63;;
54935;SDS011;40838;50.676;7.838;2023-04-25T10:34:25;11.63;;;3.63;;
54935;SDS011;40838;50.676;7.838;2023-04-25T10:37:04;13.52;;;2.92;;
54935;SDS011;40838;50.676;7.838;2023-04-25T10:39:34;8.68;;;2.97;;
54935;SDS011;40838;50.676;7.838;2023-04-25T10:42:02;6.68;;;2.53;;
54935;SDS011;40838;50.676;7.838;2023-04-25T10:44:29;9.43;;;2.70;;
54935;SDS011;40838;50.676;7.838;2023-04-25T10:46:57;6.50;;;2.63;;
54935;SDS011;40838;50.676;7.838;2023-04-25T10:49:30;5.35;;;2.88;;
54935;SDS011;40838;50.676;7.838;2023-04-25T10:52:11;8.75;;;3.50;;
54935;SDS011;40838;50.676;7.838;2023-04-25T10:54:42;11.50;;;3.10;;
54935;SDS011;40838;50.676;7.838;2023-04-25T10:57:28;6.65;;;3.47;;
54935;SDS011;40838;50.676;7.838;2023-04-25T10:59:59;11.85;;;3.40;;
54935;SDS011;40838;50.676;7.838;2023-04-25T11:02:37;6.95;;;2.90;;
54935;SDS011;40838;50.676;7.838;2023-04-25T11:05:08;11.43;;;2.47;;
54935;SDS011;40838;50.676;7.838;2023-04-25T11:07:37;9.77;;;2.67;;
54935;SDS011;40838;50.676;7.838;2023-04-25T11:10:08;10.95;;;3.05;;
54935;SDS011;40838;50.676;7.838;2023-04-25T11:12:35;7.60;;;2.88;;
54935;SDS011;40838;50.676;7.838;2023-04-25T11:15:02;5.50;;;2.10;;
54935;SDS011;40838;50.676;7.838;2023-04-25T11:17:31;7.97;;;2.97;;
54935;SDS011;40838;50.676;7.838;2023-04-25T11:19:58;7.93;;;2.30;;
54935;SDS011;40838;50.676;7.838;2023-04-25T11:22:27;7.57;;;2.42;;
54935;SDS011;40838;50.676;7.838;2023-04-25T11:24:55;11.73;;;2.60;;
54935;SDS011;40838;50.676;7.838;2023-04-25T11:27:21;8.35;;;2.70;;
54935;SDS011;40838;50.676;7.838;2023-04-25T11:29:50;8.70;;;2.80;;
54935;SDS011;40838;50.676;7.838;2023-04-25T11:32:17;13.55;;;3.00;;
54935;SDS011;40838;50.676;7.838;2023-04-25T11:34:44;8.63;;;2.92;;
54935;SDS011;40838;50.676;7.838;2023-04-25T11:37:11;10.63;;;2.50;;
54935;SDS011;40838;50.676;7.838;2023-04-25T11:39:43;8.15;;;2.72;;
54935;SDS011;40838;50.676;7.838;2023-04-25T11:42:12;7.50;;;3.25;;
54935;SDS011;40838;50.676;7.838;2023-04-25T11:44:39;12.90;;;3.47;;
54935;SDS011;40838;50.676;7.838;2023-04-25T11:47:06;11.85;;;3.67;;
54935;SDS011;40838;50.676;7.838;2023-04-25T11:49:33;7.82;;;2.88;;
54935;SDS011;40838;50.676;7.838;2023-04-25T11:52:01;13.82;;;3.13;;
54935;SDS011;40838;50.676;7.838;2023-04-25T11:54:29;8.68;;;2.80;;
54935;SDS011;40838;50.676;7.838;2023-04-25T11:56:57;6.38;;;2.42;;
54935;SDS011;40838;50.676;7.838;2023-04-25T11:59:24;4.90;;;2.47;;
54935;SDS011;40838;50.676;7.838;2023-04-25T12:01:52;5.90;;;2.20;;
54935;SDS011;40838;50.676;7.838;2023-04-25T12:04:20;8.43;;;2.15;;
54935;SDS011;40838;50.676;7.838;2023-04-25T12:06:48;9.77;;;1.98;;
54935;SDS011;40838;50.676;7.838;2023-04-25T12:09:16;8.15;;;2.75;;
54935;SDS011;40838;50.676;7.838;2023-04-25T12:11:44;8.57;;;2.53;;
54935;SDS011;40838;50.676;7.838;2023-04-25T12:14:20;6.88;;;1.85;;
54935;SDS011;40838;50.676;7.838;2023-04-25T12:16:48;8.75;;;2.22;;
54935;SDS011;40838;50.676;7.838;2023-04-25T12:19:16;7.00;;;2.72;;
54935;SDS011;40838;50.676;7.838;2023-04-25T12:21:44;5.65;;;1.77;;
54935;SDS011;40838;50.676;7.838;2023-04-25T12:24:11;9.18;;;2.13;;
54935;SDS011;40838;50.676;7.838;2023-04-25T12:26:46;7.00;;;2.10;;
54935;SDS011;40838;50.676;7.838;2023-04-25T12:29:19;9.45;;;2.08;;
54935;SDS011;40838;50.676;7.838;2023-04-25T12:31:47;8.55;;;2.38;;
54935;SDS011;40838;50.676;7.838;2023-04-25T12:34:14;8.85;;;2.53;;
54935;SDS011;40838;50.676;7.838;2023-04-25T12:36:41;5.95;;;2.70;;
54935;SDS011;40838;50.676;7.838;2023-04-25T12:39:08;7.00;;;2.60;;
54935;SDS011;40838;50.676;7.838;2023-04-25T12:41:36;6.38;;;2.40;;
54935;SDS011;40838;50.676;7.838;2023-04-25T12:44:03;6.70;;;2.63;;
54935;SDS011;40838;50.676;7.838;2023-04-25T12:46:34;10.07;;;2.90;;
54935;SDS011;40838;50.676;7.838;2023-04-25T12:49:01;5.85;;;2.78;;
54935;SDS011;40838;50.676;7.838;2023-04-25T12:51:28;7.05;;;2.58;;
54935;SDS011;40838;50.676;7.838;2023-04-25T12:53:56;8.48;;;1.95;;
54935;SDS011;40838;50.676;7.838;2023-04-25T12:56:22;5.57;;;2.13;;
54935;SDS011;40838;50.676;7.838;2023-04-25T12:58:50;6.53;;;2.00;;
54935;SDS011;40838;50.676;7.838;2023-04-25T13:01:17;3.83;;;1.75;;
54935;SDS011;40838;50.676;7.838;2023-04-25T13:03:45;7.63;;;2.40;;
54935;SDS011;40838;50.676;7.838;2023-04-25T13:06:13;6.63;;;1.52;;
54935;SDS011;40838;50.676;7.838;2023-04-25T13:08:40;4.40;;;2.00;;
54935;SDS011;40838;50.676;7.838;2023-04-25T13:11:07;4.47;;;1.67;;
54935;SDS011;40838;50.676;7.838;2023-04-25T13:13:35;7.10;;;2.15;;
54935;SDS011;40838;50.676;7.838;2023-04-25T13:16:02;6.47;;;2.47;;
54935;SDS011;40838;50.676;7.838;2023-04-25T13:18:29;14.95;;;4.70;;
54935;SDS011;40838;50.676;7.838;2023-04-25T13:20:58;6.22;;;1.85;;
54935;SDS011;40838;50.676;7.838;2023-04-25T13:23:26;4.57;;;1.75;;
54935;SDS011;40838;50.676;7.838;2023-04-25T13:25:54;6.93;;;2.20;;
54935;SDS011;40838;50.676;7.838;2023-04-25T13:28:22;6.93;;;2.10;;
54935;SDS011;40838;50.676;7.838;2023-04-25T13:30:50;7.20;;;2.40;;
54935;SDS011;40838;50.676;7.838;2023-04-25T13:33:17;7.78;;;2.70;;
54935;SDS011;40838;50.676;7.838;2023-04-25T13:35:43;8.95;;;2.53;;
54935;SDS011;40838;50.676;7.838;2023-04-25T13:38:14;7.18;;;2.63;;
54935;SDS011;40838;50.676;7.838;2023-04-25T13:40:41;9.65;;;3.10;;
54935;SDS011;40838;50.676;7.838;2023-04-25T13:43:08;15.52;;;3.08;;
54935;SDS011;40838;50.676;7.838;2023-04-25T13:45:34;6.90;;;1.85;;
54935;SDS011;40838;50.676;7.838;2023-04-25T13:48:01;4.75;;;1.80;;
54935;SDS011;40838;50.676;7.838;2023-04-25T13:50:28;7.93;;;2.25;;
54935;SDS011;40838;50.676;7.838;2023-04-25T13:52:55;11.95;;;1.90;;
54935;SDS011;40838;50.676;7.838;2023-04-25T13:55:23;10.18;;;2.03;;
54935;SDS011;40838;50.676;7.838;2023-04-25T13:57:50;4.82;;;2.08;;
54935;SDS011;40838;50.676;7.838;2023-04-25T14:00:17;6.40;;;1.30;;
54935;SDS011;40838;50.676;7.838;2023-04-25T14:02:45;3.65;;;1.42;;
54935;SDS011;40838;50.676;7.838;2023-04-25T14:05:12;4.30;;;1.38;;
54935;SDS011;40838;50.676;7.838;2023-04-25T14:07:39;3.20;;;1.40;;
54935;SDS011;40838;50.676;7.838;2023-04-25T14:10:06;3.90;;;1.48;;
54935;SDS011;40838;50.676;7.838;2023-04-25T14:12:34;3.17;;;1.70;;
54935;SDS011;40838;50.676;7.838;2023-04-25T14:15:01;6.65;;;1.55;;
54935;SDS011;40838;50.676;7.838;2023-04-25T14:17:28;6.20;;;1.15;;
54935;SDS011;40838;50.676;7.838;2023-04-25T14:19:55;5.00;;;2.03;;
54935;SDS011;40838;50.676;7.838;2023-04-25T14:22:22;10.73;;;2.42;;
54935;SDS011;40838;50.676;7.838;2023-04-25T14:24:49;5.30;;;1.60;;
54935;SDS011;40838;50.676;7.838;2023-04-25T14:27:16;6.40;;;1.60;;
54935;SDS011;40838;50.676;7.838;2023-04-25T14:29:44;7.47;;;1.65;;
54935;SDS011;40838;50.676;7.838;2023-04-25T14:32:11;5.38;;;1.58;;
54935;SDS011;40838;50.676;7.838;2023-04-25T14:34:38;4.03;;;2.40;;
54935;SDS011;40838;50.676;7.838;2023-04-25T14:37:05;9.30;;;1.85;;
54935;SDS011;40838;50.676;7.838;2023-04-25T14:39:32;6.65;;;1.45;;
54935;SDS011;40838;50.676;7.838;2023-04-25T14:41:58;9.10;;;1.67;;
54935;SDS011;40838;50.676;7.838;2023-04-25T14:44:25;5.30;;;1.83;;
54935;SDS011;40838;50.676;7.838;2023-04-25T14:46:53;5.35;;;1.65;;
54935;SDS011;40838;50.676;7.838;2023-04-25T14:49:20;6.25;;;1.52;;
54935;SDS011;40838;50.676;7.838;2023-04-25T14:51:47;11.38;;;2.83;;
54935;SDS011;40838;50.676;7.838;2023-04-25T14:54:15;9.55;;;1.83;;
54935;SDS011;40838;50.676;7.838;2023-04-25T14:56:42;7.18;;;2.10;;
54935;SDS011;40838;50.676;7.838;2023-04-25T14:59:09;6.65;;;2.35;;